sensor_id;sensor_type;location;lat;lon;timestamp;P1;durP1;ratioP1;P2;durP2;ratioP2
10586;SDS011;5341;47.606;7.576;2023-07-29T00:01:25;2.15;;;1.85;;
10586;SDS011;5341;47.606;7.576;2023-07-29T00:03:52;3.13;;;1.98;;
10586;SDS011;5341;47.606;7.576;2023-07-29T00:06:20;2.08;;;1.80;;
10586;SDS011;5341;47.606;7.576;2023-07-29T00:08:49;2.35;;;1.90;;
10586;SDS011;5341;47.606;7.576;2023-07-29T00:11:16;3.15;;;1.88;;
10586;SDS011;5341;47.606;7.576;2023-07-29T00:13:44;2.00;;;1.80;;
10586;SDS011;5341;47.606;7.576;2023-07-29T00:16:12;3.80;;;1.92;;
10586;SDS011;5341;47.606;7.576;2023-07-29T00:18:42;3.67;;;1.90;;
10586;SDS011;5341;47.606;7.576;2023-07-29T00:21:10;1.98;;;1.77;;
10586;SDS011;5341;47.606;7.576;2023-07-29T00:23:37;2.33;;;2.00;;
10586;SDS011;5341;47.606;7.576;2023-07-29T00:26:06;3.47;;;2.00;;
10586;SDS011;5341;47.606;7.576;2023-07-29T00:28:33;3.20;;;1.88;;
10586;SDS011;5341;47.606;7.576;2023-07-29T00:31:01;3.50;;;1.80;;
10586;SDS011;5341;47.606;7.576;2023-07-29T00:33:29;2.15;;;1.95;;
10586;SDS011;5341;47.606;7.576;2023-07-29T00:35:56;3.13;;;1.95;;
10586;SDS011;5341;47.606;7.576;2023-07-29T00:38:27;2.72;;;2.00;;
10586;SDS011;5341;47.606;7.576;2023-07-29T00:40:55;2.70;;;1.80;;
10586;SDS011;5341;47.606;7.576;2023-07-29T00:43:25;2.30;;;1.88;;
10586;SDS011;5341;47.606;7.576;2023-07-29T00:45:53;2.83;;;2.08;;
10586;SDS011;5341;47.606;7.576;2023-07-29T00:48:22;2.95;;;2.17;;
10586;SDS011;5341;47.606;7.576;2023-07-29T00:50:50;2.20;;;2.00;;
10586;SDS011;5341;47.606;7.576;2023-07-29T00:53:18;3.30;;;2.03;;
10586;SDS011;5341;47.606;7.576;2023-07-29T00:55:46;2.65;;;1.80;;
10586;SDS011;5341;47.606;7.576;2023-07-29T00:58:14;4.32;;;2.17;;
10586;SDS011;5341;47.606;7.576;2023-07-29T01:00:43;2.10;;;1.90;;
10586;SDS011;5341;47.606;7.576;2023-07-29T01:03:11;2.10;;;1.90;;
10586;SDS011;5341;47.606;7.576;2023-07-29T01:05:42;2.53;;;2.00;;
10586;SDS011;5341;47.606;7.576;2023-07-29T01:08:21;2.47;;;2.13;;
10586;SDS011;5341;47.606;7.576;2023-07-29T01:10:58;2.60;;;2.05;;
10586;SDS011;5341;47.606;7.576;2023-07-29T01:13:31;3.20;;;2.10;;
10586;SDS011;5341;47.606;7.576;2023-07-29T01:16:08;4.40;;;2.28;;
10586;SDS011;5341;47.606;7.576;2023-07-29T01:18:41;2.70;;;2.03;;
10586;SDS011;5341;47.606;7.576;2023-07-29T01:21:11;3.30;;;2.13;;
10586;SDS011;5341;47.606;7.576;2023-07-29T01:23:44;2.28;;;2.00;;
10586;SDS011;5341;47.606;7.576;2023-07-29T01:26:12;2.95;;;2.20;;
10586;SDS011;5341;47.606;7.576;2023-07-29T01:28:40;3.22;;;2.10;;
10586;SDS011;5341;47.606;7.576;2023-07-29T01:31:10;2.88;;;2.10;;
10586;SDS011;5341;47.606;7.576;2023-07-29T01:33:45;2.72;;;2.25;;
10586;SDS011;5341;47.606;7.576;2023-07-29T01:36:21;6.40;;;2.33;;
10586;SDS011;5341;47.606;7.576;2023-07-29T01:38:55;2.83;;;2.30;;
10586;SDS011;5341;47.606;7.576;2023-07-29T01:41:24;3.05;;;2.13;;
10586;SDS011;5341;47.606;7.576;2023-07-29T01:43:55;2.72;;;2.30;;
10586;SDS011;5341;47.606;7.576;2023-07-29T01:46:25;3.42;;;2.47;;
10586;SDS011;5341;47.606;7.576;2023-07-29T01:48:53;3.85;;;2.20;;
10586;SDS011;5341;47.606;7.576;2023-07-29T01:51:21;4.15;;;2.30;;
10586;SDS011;5341;47.606;7.576;2023-07-29T01:53:49;2.45;;;2.25;;
10586;SDS011;5341;47.606;7.576;2023-07-29T01:56:19;3.03;;;2.33;;
10586;SDS011;5341;47.606;7.576;2023-07-29T01:58:54;4.43;;;2.50;;
10586;SDS011;5341;47.606;7.576;2023-07-29T02:01:22;3.00;;;2.17;;
10586;SDS011;5341;47.606;7.576;2023-07-29T02:03:50;2.25;;;2.05;;
10586;SDS011;5341;47.606;7.576;2023-07-29T02:06:20;2.55;;;2.00;;
10586;SDS011;5341;47.606;7.576;2023-07-29T02:08:48;4.75;;;2.00;;
10586;SDS011;5341;47.606;7.576;2023-07-29T02:11:15;2.67;;;2.03;;
10586;SDS011;5341;47.606;7.576;2023-07-29T02:13:47;2.33;;;2.03;;
10586;SDS011;5341;47.606;7.576;2023-07-29T02:16:15;3.75;;;2.00;;
10586;SDS011;5341;47.606;7.576;2023-07-29T02:18:42;2.35;;;2.15;;
10586;SDS011;5341;47.606;7.576;2023-07-29T02:21:09;2.70;;;2.35;;
10586;SDS011;5341;47.606;7.576;2023-07-29T02:23:37;2.53;;;2.33;;
10586;SDS011;5341;47.606;7.576;2023-07-29T02:26:05;2.85;;;2.00;;
10586;SDS011;5341;47.606;7.576;2023-07-29T02:28:32;2.70;;;2.00;;
10586;SDS011;5341;47.606;7.576;2023-07-29T02:31:12;2.53;;;2.00;;
10586;SDS011;5341;47.606;7.576;2023-07-29T02:33:43;3.53;;;2.38;;
10586;SDS011;5341;47.606;7.576;2023-07-29T02:36:11;3.13;;;2.20;;
10586;SDS011;5341;47.606;7.576;2023-07-29T02:38:40;2.28;;;1.98;;
10586;SDS011;5341;47.606;7.576;2023-07-29T02:41:09;4.88;;;2.20;;
10586;SDS011;5341;47.606;7.576;2023-07-29T02:43:38;2.80;;;1.80;;
10586;SDS011;5341;47.606;7.576;2023-07-29T02:46:07;3.40;;;1.98;;
10586;SDS011;5341;47.606;7.576;2023-07-29T02:48:37;2.78;;;2.00;;
10586;SDS011;5341;47.606;7.576;2023-07-29T02:51:07;6.65;;;2.00;;
10586;SDS011;5341;47.606;7.576;2023-07-29T02:53:35;2.55;;;2.10;;
10586;SDS011;5341;47.606;7.576;2023-07-29T02:56:03;2.30;;;2.00;;
10586;SDS011;5341;47.606;7.576;2023-07-29T02:58:32;2.33;;;1.83;;
10586;SDS011;5341;47.606;7.576;2023-07-29T03:01:00;2.28;;;1.90;;
10586;SDS011;5341;47.606;7.576;2023-07-29T03:03:29;2.30;;;2.00;;
10586;SDS011;5341;47.606;7.576;2023-07-29T03:06:00;2.38;;;1.83;;
10586;SDS011;5341;47.606;7.576;2023-07-29T03:08:28;2.60;;;2.33;;
10586;SDS011;5341;47.606;7.576;2023-07-29T03:10:56;2.30;;;2.03;;
10586;SDS011;5341;47.606;7.576;2023-07-29T03:13:24;3.53;;;2.10;;
10586;SDS011;5341;47.606;7.576;2023-07-29T03:15:52;2.55;;;1.95;;
10586;SDS011;5341;47.606;7.576;2023-07-29T03:18:21;2.90;;;2.00;;
10586;SDS011;5341;47.606;7.576;2023-07-29T03:20:48;4.75;;;2.35;;
10586;SDS011;5341;47.606;7.576;2023-07-29T03:23:17;3.53;;;2.13;;
10586;SDS011;5341;47.606;7.576;2023-07-29T03:25:48;4.97;;;2.22;;
10586;SDS011;5341;47.606;7.576;2023-07-29T03:28:17;2.67;;;2.42;;
10586;SDS011;5341;47.606;7.576;2023-07-29T03:30:45;2.72;;;2.00;;
10586;SDS011;5341;47.606;7.576;2023-07-29T03:33:12;3.38;;;2.33;;
10586;SDS011;5341;47.606;7.576;2023-07-29T03:35:40;2.22;;;2.00;;
10586;SDS011;5341;47.606;7.576;2023-07-29T03:38:10;2.65;;;2.30;;
10586;SDS011;5341;47.606;7.576;2023-07-29T03:40:39;3.00;;;2.15;;
10586;SDS011;5341;47.606;7.576;2023-07-29T03:43:07;3.03;;;1.83;;
10586;SDS011;5341;47.606;7.576;2023-07-29T03:45:36;2.58;;;2.38;;
10586;SDS011;5341;47.606;7.576;2023-07-29T03:48:04;3.30;;;2.10;;
10586;SDS011;5341;47.606;7.576;2023-07-29T03:50:32;2.15;;;1.95;;
10586;SDS011;5341;47.606;7.576;2023-07-29T03:53:02;3.95;;;2.13;;
10586;SDS011;5341;47.606;7.576;2023-07-29T03:55:30;3.38;;;1.92;;
10586;SDS011;5341;47.606;7.576;2023-07-29T03:57:59;4.43;;;2.20;;
10586;SDS011;5341;47.606;7.576;2023-07-29T04:00:28;2.97;;;1.98;;
10586;SDS011;5341;47.606;7.576;2023-07-29T04:02:55;2.83;;;2.00;;
10586;SDS011;5341;47.606;7.576;2023-07-29T04:05:23;2.50;;;2.03;;
10586;SDS011;5341;47.606;7.576;2023-07-29T04:07:50;3.08;;;2.30;;
10586;SDS011;5341;47.606;7.576;2023-07-29T04:10:19;2.42;;;2.13;;
10586;SDS011;5341;47.606;7.576;2023-07-29T04:12:47;2.20;;;2.00;;
10586;SDS011;5341;47.606;7.576;2023-07-29T04:15:17;2.50;;;2.15;;
10586;SDS011;5341;47.606;7.576;2023-07-29T04:17:44;3.95;;;2.40;;
10586;SDS011;5341;47.606;7.576;2023-07-29T04:20:12;3.05;;;2.25;;
10586;SDS011;5341;47.606;7.576;2023-07-29T04:22:39;2.88;;;1.90;;
10586;SDS011;5341;47.606;7.576;2023-07-29T04:25:07;2.90;;;1.95;;
10586;SDS011;5341;47.606;7.576;2023-07-29T04:27:35;3.13;;;2.45;;
10586;SDS011;5341;47.606;7.576;2023-07-29T04:30:03;2.83;;;2.20;;
10586;SDS011;5341;47.606;7.576;2023-07-29T04:32:32;1.80;;;1.70;;
10586;SDS011;5341;47.606;7.576;2023-07-29T04:35:00;2.67;;;2.10;;
10586;SDS011;5341;47.606;7.576;2023-07-29T04:37:27;3.67;;;2.20;;
10586;SDS011;5341;47.606;7.576;2023-07-29T04:39:54;2.58;;;2.08;;
10586;SDS011;5341;47.606;7.576;2023-07-29T04:42:22;2.20;;;2.00;;
10586;SDS011;5341;47.606;7.576;2023-07-29T04:44:49;2.42;;;2.22;;
10586;SDS011;5341;47.606;7.576;2023-07-29T04:47:17;3.45;;;2.40;;
10586;SDS011;5341;47.606;7.576;2023-07-29T04:49:46;2.65;;;2.03;;
10586;SDS011;5341;47.606;7.576;2023-07-29T04:52:14;3.25;;;2.30;;
10586;SDS011;5341;47.606;7.576;2023-07-29T04:54:41;3.25;;;2.40;;
10586;SDS011;5341;47.606;7.576;2023-07-29T04:57:09;2.42;;;2.20;;
10586;SDS011;5341;47.606;7.576;2023-07-29T04:59:37;2.95;;;2.10;;
10586;SDS011;5341;47.606;7.576;2023-07-29T05:02:05;2.75;;;2.25;;
10586;SDS011;5341;47.606;7.576;2023-07-29T05:04:32;2.20;;;2.00;;
10586;SDS011;5341;47.606;7.576;2023-07-29T05:07:01;2.33;;;2.08;;
10586;SDS011;5341;47.606;7.576;2023-07-29T05:09:29;2.30;;;2.10;;
10586;SDS011;5341;47.606;7.576;2023-07-29T05:11:56;2.45;;;2.20;;
10586;SDS011;5341;47.606;7.576;2023-07-29T05:14:23;3.97;;;2.08;;
10586;SDS011;5341;47.606;7.576;2023-07-29T05:16:51;2.75;;;2.40;;
10586;SDS011;5341;47.606;7.576;2023-07-29T05:19:19;2.55;;;2.35;;
10586;SDS011;5341;47.606;7.576;2023-07-29T05:21:47;5.10;;;2.60;;
10586;SDS011;5341;47.606;7.576;2023-07-29T05:24:16;3.20;;;2.42;;
10586;SDS011;5341;47.606;7.576;2023-07-29T05:26:43;2.45;;;2.22;;
10586;SDS011;5341;47.606;7.576;2023-07-29T05:29:10;2.80;;;2.15;;
10586;SDS011;5341;47.606;7.576;2023-07-29T05:31:38;2.45;;;2.25;;
10586;SDS011;5341;47.606;7.576;2023-07-29T05:34:06;3.55;;;1.98;;
10586;SDS011;5341;47.606;7.576;2023-07-29T05:36:35;2.35;;;2.15;;
10586;SDS011;5341;47.606;7.576;2023-07-29T05:39:02;2.47;;;2.28;;
10586;SDS011;5341;47.606;7.576;2023-07-29T05:41:32;2.20;;;2.00;;
10586;SDS011;5341;47.606;7.576;2023-07-29T05:43:59;4.57;;;2.72;;
10586;SDS011;5341;47.606;7.576;2023-07-29T05:46:28;3.00;;;2.45;;
10586;SDS011;5341;47.606;7.576;2023-07-29T05:48:55;2.30;;;2.10;;
10586;SDS011;5341;47.606;7.576;2023-07-29T05:51:22;2.25;;;2.05;;
10586;SDS011;5341;47.606;7.576;2023-07-29T05:53:50;2.47;;;2.28;;
10586;SDS011;5341;47.606;7.576;2023-07-29T05:56:17;2.35;;;2.15;;
10586;SDS011;5341;47.606;7.576;2023-07-29T05:58:46;2.45;;;2.25;;
10586;SDS011;5341;47.606;7.576;2023-07-29T06:01:14;2.47;;;2.28;;
10586;SDS011;5341;47.606;7.576;2023-07-29T06:03:42;3.53;;;2.75;;
10586;SDS011;5341;47.606;7.576;2023-07-29T06:06:09;2.63;;;2.20;;
10586;SDS011;5341;47.606;7.576;2023-07-29T06:08:37;2.67;;;2.38;;
10586;SDS011;5341;47.606;7.576;2023-07-29T06:11:04;2.45;;;2.15;;
10586;SDS011;5341;47.606;7.576;2023-07-29T06:13:34;2.35;;;2.15;;
10586;SDS011;5341;47.606;7.576;2023-07-29T06:16:02;2.80;;;2.20;;
10586;SDS011;5341;47.606;7.576;2023-07-29T06:18:30;2.30;;;2.08;;
10586;SDS011;5341;47.606;7.576;2023-07-29T06:20:59;2.80;;;2.30;;
10586;SDS011;5341;47.606;7.576;2023-07-29T06:23:27;2.40;;;2.20;;
10586;SDS011;5341;47.606;7.576;2023-07-29T06:25:54;3.00;;;2.30;;
10586;SDS011;5341;47.606;7.576;2023-07-29T06:28:22;2.47;;;2.28;;
10586;SDS011;5341;47.606;7.576;2023-07-29T06:30:49;2.88;;;2.10;;
10586;SDS011;5341;47.606;7.576;2023-07-29T06:33:20;2.50;;;2.30;;
10586;SDS011;5341;47.606;7.576;2023-07-29T06:35:48;3.10;;;2.63;;
10586;SDS011;5341;47.606;7.576;2023-07-29T06:38:16;5.88;;;2.45;;
10586;SDS011;5341;47.606;7.576;2023-07-29T06:40:47;4.82;;;2.70;;
10586;SDS011;5341;47.606;7.576;2023-07-29T06:43:15;4.35;;;2.50;;
10586;SDS011;5341;47.606;7.576;2023-07-29T06:45:42;2.72;;;2.30;;
10586;SDS011;5341;47.606;7.576;2023-07-29T06:48:10;2.92;;;2.35;;
10586;SDS011;5341;47.606;7.576;2023-07-29T06:50:40;2.67;;;2.20;;
10586;SDS011;5341;47.606;7.576;2023-07-29T06:53:07;2.88;;;2.58;;
10586;SDS011;5341;47.606;7.576;2023-07-29T06:55:36;2.83;;;2.33;;
10586;SDS011;5341;47.606;7.576;2023-07-29T06:58:03;2.90;;;2.40;;
10586;SDS011;5341;47.606;7.576;2023-07-29T07:00:31;3.35;;;2.50;;
10586;SDS011;5341;47.606;7.576;2023-07-29T07:02:59;2.60;;;2.20;;
10586;SDS011;5341;47.606;7.576;2023-07-29T07:05:28;3.75;;;2.20;;
10586;SDS011;5341;47.606;7.576;2023-07-29T07:07:57;2.40;;;2.20;;
10586;SDS011;5341;47.606;7.576;2023-07-29T07:10:25;3.35;;;2.45;;
10586;SDS011;5341;47.606;7.576;2023-07-29T07:12:52;2.88;;;2.30;;
10586;SDS011;5341;47.606;7.576;2023-07-29T07:15:20;2.90;;;2.30;;
10586;SDS011;5341;47.606;7.576;2023-07-29T07:17:47;2.72;;;2.30;;
10586;SDS011;5341;47.606;7.576;2023-07-29T07:20:15;2.60;;;2.10;;
10586;SDS011;5341;47.606;7.576;2023-07-29T07:22:43;2.40;;;2.08;;
10586;SDS011;5341;47.606;7.576;2023-07-29T07:25:12;3.60;;;2.40;;
10586;SDS011;5341;47.606;7.576;2023-07-29T07:27:39;2.50;;;2.25;;
10586;SDS011;5341;47.606;7.576;2023-07-29T07:30:07;2.30;;;2.03;;
10586;SDS011;5341;47.606;7.576;2023-07-29T07:32:34;4.75;;;2.30;;
10586;SDS011;5341;47.606;7.576;2023-07-29T07:35:02;5.47;;;2.30;;
10586;SDS011;5341;47.606;7.576;2023-07-29T07:37:30;2.53;;;2.33;;
10586;SDS011;5341;47.606;7.576;2023-07-29T07:39:58;4.40;;;2.30;;
10586;SDS011;5341;47.606;7.576;2023-07-29T07:42:27;2.72;;;2.08;;
10586;SDS011;5341;47.606;7.576;2023-07-29T07:44:54;3.95;;;1.73;;
10586;SDS011;5341;47.606;7.576;2023-07-29T07:47:22;2.30;;;2.10;;
10586;SDS011;5341;47.606;7.576;2023-07-29T07:49:49;2.38;;;1.60;;
10586;SDS011;5341;47.606;7.576;2023-07-29T07:52:17;2.38;;;1.92;;
10586;SDS011;5341;47.606;7.576;2023-07-29T07:54:44;2.75;;;1.90;;
10586;SDS011;5341;47.606;7.576;2023-07-29T07:57:12;3.30;;;1.80;;
10586;SDS011;5341;47.606;7.576;2023-07-29T07:59:40;2.10;;;1.90;;
10586;SDS011;5341;47.606;7.576;2023-07-29T08:02:08;2.42;;;2.20;;
10586;SDS011;5341;47.606;7.576;2023-07-29T08:04:36;2.10;;;1.90;;
10586;SDS011;5341;47.606;7.576;2023-07-29T08:07:04;2.97;;;1.88;;
10586;SDS011;5341;47.606;7.576;2023-07-29T08:09:33;3.88;;;1.95;;
10586;SDS011;5341;47.606;7.576;2023-07-29T08:12:01;3.65;;;1.90;;
10586;SDS011;5341;47.606;7.576;2023-07-29T08:14:28;2.25;;;1.60;;
10586;SDS011;5341;47.606;7.576;2023-07-29T08:16:57;2.33;;;1.83;;
10586;SDS011;5341;47.606;7.576;2023-07-29T08:19:26;2.58;;;1.90;;
10586;SDS011;5341;47.606;7.576;2023-07-29T08:21:54;2.58;;;2.00;;
10586;SDS011;5341;47.606;7.576;2023-07-29T08:24:23;2.40;;;1.92;;
10586;SDS011;5341;47.606;7.576;2023-07-29T08:26:50;2.10;;;1.90;;
10586;SDS011;5341;47.606;7.576;2023-07-29T08:29:18;1.88;;;1.77;;
10586;SDS011;5341;47.606;7.576;2023-07-29T08:31:45;2.72;;;1.85;;
10586;SDS011;5341;47.606;7.576;2023-07-29T08:34:14;3.00;;;2.03;;
10586;SDS011;5341;47.606;7.576;2023-07-29T08:36:42;3.63;;;1.92;;
10586;SDS011;5341;47.606;7.576;2023-07-29T08:39:10;4.40;;;2.10;;
10586;SDS011;5341;47.606;7.576;2023-07-29T08:41:40;2.28;;;2.08;;
10586;SDS011;5341;47.606;7.576;2023-07-29T08:44:18;2.75;;;2.00;;
10586;SDS011;5341;47.606;7.576;2023-07-29T08:46:49;2.45;;;2.08;;
10586;SDS011;5341;47.606;7.576;2023-07-29T08:49:20;2.30;;;1.85;;
10586;SDS011;5341;47.606;7.576;2023-07-29T08:51:50;2.38;;;1.90;;
10586;SDS011;5341;47.606;7.576;2023-07-29T08:54:20;2.88;;;2.20;;
10586;SDS011;5341;47.606;7.576;2023-07-29T08:56:48;3.95;;;2.10;;
10586;SDS011;5341;47.606;7.576;2023-07-29T08:59:17;2.10;;;1.90;;
10586;SDS011;5341;47.606;7.576;2023-07-29T09:01:45;3.50;;;2.10;;
10586;SDS011;5341;47.606;7.576;2023-07-29T09:04:14;2.03;;;1.83;;
10586;SDS011;5341;47.606;7.576;2023-07-29T09:06:43;2.30;;;1.80;;
10586;SDS011;5341;47.606;7.576;2023-07-29T09:09:13;8.18;;;2.00;;
10586;SDS011;5341;47.606;7.576;2023-07-29T09:11:41;2.58;;;1.95;;
10586;SDS011;5341;47.606;7.576;2023-07-29T09:14:08;3.17;;;1.80;;
10586;SDS011;5341;47.606;7.576;2023-07-29T09:16:36;3.53;;;2.08;;
10586;SDS011;5341;47.606;7.576;2023-07-29T09:19:04;2.33;;;2.10;;
10586;SDS011;5341;47.606;7.576;2023-07-29T09:21:31;2.03;;;1.83;;
10586;SDS011;5341;47.606;7.576;2023-07-29T09:24:03;3.83;;;1.90;;
10586;SDS011;5341;47.606;7.576;2023-07-29T09:26:33;2.47;;;1.92;;
10586;SDS011;5341;47.606;7.576;2023-07-29T09:29:00;2.00;;;1.80;;
10586;SDS011;5341;47.606;7.576;2023-07-29T09:31:28;2.20;;;1.77;;
10586;SDS011;5341;47.606;7.576;2023-07-29T09:33:56;3.65;;;1.90;;
10586;SDS011;5341;47.606;7.576;2023-07-29T09:36:25;2.75;;;1.92;;
10586;SDS011;5341;47.606;7.576;2023-07-29T09:38:53;2.42;;;2.17;;
10586;SDS011;5341;47.606;7.576;2023-07-29T09:41:23;2.60;;;1.90;;
10586;SDS011;5341;47.606;7.576;2023-07-29T09:43:55;3.10;;;1.95;;
10586;SDS011;5341;47.606;7.576;2023-07-29T09:46:25;3.92;;;2.28;;
10586;SDS011;5341;47.606;7.576;2023-07-29T09:48:58;2.10;;;1.90;;
10586;SDS011;5341;47.606;7.576;2023-07-29T09:51:26;2.40;;;2.17;;
10586;SDS011;5341;47.606;7.576;2023-07-29T09:53:54;5.00;;;2.28;;
10586;SDS011;5341;47.606;7.576;2023-07-29T09:56:25;2.67;;;2.10;;
10586;SDS011;5341;47.606;7.576;2023-07-29T09:58:55;2.97;;;2.33;;
10586;SDS011;5341;47.606;7.576;2023-07-29T10:01:23;2.30;;;1.95;;
10586;SDS011;5341;47.606;7.576;2023-07-29T10:03:52;3.30;;;2.10;;
10586;SDS011;5341;47.606;7.576;2023-07-29T10:06:21;3.72;;;2.30;;
10586;SDS011;5341;47.606;7.576;2023-07-29T10:08:50;2.35;;;2.00;;
10586;SDS011;5341;47.606;7.576;2023-07-29T10:11:18;3.63;;;2.00;;
10586;SDS011;5341;47.606;7.576;2023-07-29T10:13:50;2.75;;;2.28;;
10586;SDS011;5341;47.606;7.576;2023-07-29T10:16:19;2.50;;;2.30;;
10586;SDS011;5341;47.606;7.576;2023-07-29T10:18:49;3.45;;;2.60;;
10586;SDS011;5341;47.606;7.576;2023-07-29T10:21:19;2.30;;;2.10;;
10586;SDS011;5341;47.606;7.576;2023-07-29T10:23:49;3.22;;;2.10;;
10586;SDS011;5341;47.606;7.576;2023-07-29T10:26:24;4.85;;;2.55;;
10586;SDS011;5341;47.606;7.576;2023-07-29T10:28:56;3.70;;;2.60;;
10586;SDS011;5341;47.606;7.576;2023-07-29T10:31:30;2.90;;;2.60;;
10586;SDS011;5341;47.606;7.576;2023-07-29T10:33:59;4.57;;;2.55;;
10586;SDS011;5341;47.606;7.576;2023-07-29T10:36:27;2.60;;;2.40;;
10586;SDS011;5341;47.606;7.576;2023-07-29T10:38:54;3.72;;;2.80;;
10586;SDS011;5341;47.606;7.576;2023-07-29T10:41:22;2.90;;;2.40;;
10586;SDS011;5341;47.606;7.576;2023-07-29T10:43:49;2.50;;;2.30;;
10586;SDS011;5341;47.606;7.576;2023-07-29T10:46:19;2.50;;;2.30;;
10586;SDS011;5341;47.606;7.576;2023-07-29T10:48:54;2.95;;;2.47;;
10586;SDS011;5341;47.606;7.576;2023-07-29T10:51:25;2.92;;;2.55;;
10586;SDS011;5341;47.606;7.576;2023-07-29T10:53:55;2.72;;;2.40;;
10586;SDS011;5341;47.606;7.576;2023-07-29T10:56:27;3.08;;;2.53;;
10586;SDS011;5341;47.606;7.576;2023-07-29T10:58:58;4.03;;;2.80;;
10586;SDS011;5341;47.606;7.576;2023-07-29T11:01:31;2.53;;;2.33;;
10586;SDS011;5341;47.606;7.576;2023-07-29T11:09:52;3.53;;;2.60;;
10586;SDS011;5341;47.606;7.576;2023-07-29T11:12:35;2.78;;;2.50;;
10586;SDS011;5341;47.606;7.576;2023-07-29T11:15:03;3.08;;;2.78;;
10586;SDS011;5341;47.606;7.576;2023-07-29T11:17:40;3.05;;;2.72;;
10586;SDS011;5341;47.606;7.576;2023-07-29T11:20:08;3.17;;;2.88;;
10586;SDS011;5341;47.606;7.576;2023-07-29T11:22:37;3.83;;;2.92;;
10586;SDS011;5341;47.606;7.576;2023-07-29T11:25:06;4.40;;;2.60;;
10586;SDS011;5341;47.606;7.576;2023-07-29T11:27:35;2.80;;;2.60;;
10586;SDS011;5341;47.606;7.576;2023-07-29T11:30:03;2.97;;;2.63;;
10586;SDS011;5341;47.606;7.576;2023-07-29T11:32:33;2.88;;;2.58;;
10586;SDS011;5341;47.606;7.576;2023-07-29T11:35:06;3.25;;;2.58;;
10586;SDS011;5341;47.606;7.576;2023-07-29T11:37:42;3.15;;;2.80;;
10586;SDS011;5341;47.606;7.576;2023-07-29T11:40:13;3.85;;;2.70;;
10586;SDS011;5341;47.606;7.576;2023-07-29T11:42:41;2.70;;;2.50;;
10586;SDS011;5341;47.606;7.576;2023-07-29T11:45:09;2.95;;;2.65;;
10586;SDS011;5341;47.606;7.576;2023-07-29T11:47:39;4.18;;;2.80;;
10586;SDS011;5341;47.606;7.576;2023-07-29T11:50:09;3.35;;;2.65;;
10586;SDS011;5341;47.606;7.576;2023-07-29T11:52:39;3.63;;;2.78;;
10586;SDS011;5341;47.606;7.576;2023-07-29T11:55:09;3.95;;;2.45;;
10586;SDS011;5341;47.606;7.576;2023-07-29T11:57:37;3.08;;;2.42;;
10586;SDS011;5341;47.606;7.576;2023-07-29T12:00:06;3.05;;;2.75;;
10586;SDS011;5341;47.606;7.576;2023-07-29T12:02:36;5.30;;;2.70;;
10586;SDS011;5341;47.606;7.576;2023-07-29T12:05:04;3.00;;;2.70;;
10586;SDS011;5341;47.606;7.576;2023-07-29T12:07:35;4.18;;;2.70;;
10586;SDS011;5341;47.606;7.576;2023-07-29T12:10:05;2.65;;;2.45;;
10586;SDS011;5341;47.606;7.576;2023-07-29T12:12:33;3.10;;;2.47;;
10586;SDS011;5341;47.606;7.576;2023-07-29T12:15:04;2.47;;;2.28;;
10586;SDS011;5341;47.606;7.576;2023-07-29T12:17:33;2.88;;;2.30;;
10586;SDS011;5341;47.606;7.576;2023-07-29T12:20:08;2.85;;;2.50;;
10586;SDS011;5341;47.606;7.576;2023-07-29T12:22:38;3.20;;;2.38;;
10586;SDS011;5341;47.606;7.576;2023-07-29T12:25:05;2.28;;;2.08;;
10586;SDS011;5341;47.606;7.576;2023-07-29T12:27:33;2.70;;;2.45;;
10586;SDS011;5341;47.606;7.576;2023-07-29T12:30:02;2.35;;;2.15;;
10586;SDS011;5341;47.606;7.576;2023-07-29T12:32:30;4.68;;;2.58;;
10586;SDS011;5341;47.606;7.576;2023-07-29T12:34:57;2.53;;;2.33;;
10586;SDS011;5341;47.606;7.576;2023-07-29T12:37:30;4.40;;;2.47;;
10586;SDS011;5341;47.606;7.576;2023-07-29T12:40:01;3.67;;;2.42;;
10586;SDS011;5341;47.606;7.576;2023-07-29T12:42:29;2.65;;;2.33;;
10586;SDS011;5341;47.606;7.576;2023-07-29T12:44:56;3.13;;;2.15;;
10586;SDS011;5341;47.606;7.576;2023-07-29T12:47:24;2.53;;;2.20;;
10586;SDS011;5341;47.606;7.576;2023-07-29T12:49:51;2.72;;;2.30;;
10586;SDS011;5341;47.606;7.576;2023-07-29T12:52:19;3.45;;;2.50;;
10586;SDS011;5341;47.606;7.576;2023-07-29T12:54:46;2.83;;;2.25;;
10586;SDS011;5341;47.606;7.576;2023-07-29T12:57:15;2.67;;;2.47;;
10586;SDS011;5341;47.606;7.576;2023-07-29T12:59:42;4.43;;;2.20;;
10586;SDS011;5341;47.606;7.576;2023-07-29T13:02:10;3.03;;;2.30;;
10586;SDS011;5341;47.606;7.576;2023-07-29T13:04:37;3.05;;;2.60;;
10586;SDS011;5341;47.606;7.576;2023-07-29T13:07:05;2.50;;;2.30;;
10586;SDS011;5341;47.606;7.576;2023-07-29T13:09:32;4.07;;;2.30;;
10586;SDS011;5341;47.606;7.576;2023-07-29T13:12:00;2.55;;;2.35;;
10586;SDS011;5341;47.606;7.576;2023-07-29T13:14:29;4.68;;;2.40;;
10586;SDS011;5341;47.606;7.576;2023-07-29T13:16:56;2.72;;;2.50;;
10586;SDS011;5341;47.606;7.576;2023-07-29T13:19:24;4.57;;;2.55;;
10586;SDS011;5341;47.606;7.576;2023-07-29T13:21:51;4.47;;;2.40;;
10586;SDS011;5341;47.606;7.576;2023-07-29T13:24:19;2.90;;;2.60;;
10586;SDS011;5341;47.606;7.576;2023-07-29T13:26:46;2.63;;;2.28;;
10586;SDS011;5341;47.606;7.576;2023-07-29T13:29:14;4.47;;;2.50;;
10586;SDS011;5341;47.606;7.576;2023-07-29T13:31:43;2.50;;;2.30;;
10586;SDS011;5341;47.606;7.576;2023-07-29T13:34:10;2.60;;;2.40;;
10586;SDS011;5341;47.606;7.576;2023-07-29T13:36:39;3.95;;;2.67;;
10586;SDS011;5341;47.606;7.576;2023-07-29T13:39:06;3.38;;;2.55;;
10586;SDS011;5341;47.606;7.576;2023-07-29T13:41:34;3.30;;;2.53;;
10586;SDS011;5341;47.606;7.576;2023-07-29T13:44:01;3.45;;;2.70;;
10586;SDS011;5341;47.606;7.576;2023-07-29T13:46:29;2.60;;;2.40;;
10586;SDS011;5341;47.606;7.576;2023-07-29T13:48:58;2.40;;;2.20;;
10586;SDS011;5341;47.606;7.576;2023-07-29T13:51:26;3.90;;;2.63;;
10586;SDS011;5341;47.606;7.576;2023-07-29T13:53:54;3.67;;;2.85;;
10586;SDS011;5341;47.606;7.576;2023-07-29T13:56:21;4.47;;;2.90;;
10586;SDS011;5341;47.606;7.576;2023-07-29T13:58:49;4.90;;;3.08;;
10586;SDS011;5341;47.606;7.576;2023-07-29T14:01:16;4.57;;;3.05;;
10586;SDS011;5341;47.606;7.576;2023-07-29T14:03:44;4.22;;;2.95;;
10586;SDS011;5341;47.606;7.576;2023-07-29T14:06:13;3.25;;;2.83;;
10586;SDS011;5341;47.606;7.576;2023-07-29T14:08:41;3.80;;;2.58;;
10586;SDS011;5341;47.606;7.576;2023-07-29T14:11:08;4.22;;;2.60;;
10586;SDS011;5341;47.606;7.576;2023-07-29T14:13:36;2.83;;;2.58;;
10586;SDS011;5341;47.606;7.576;2023-07-29T14:16:04;4.70;;;2.75;;
10586;SDS011;5341;47.606;7.576;2023-07-29T14:18:33;3.25;;;2.53;;
10586;SDS011;5341;47.606;7.576;2023-07-29T14:21:01;3.42;;;2.40;;
10586;SDS011;5341;47.606;7.576;2023-07-29T14:23:30;2.60;;;2.40;;
10586;SDS011;5341;47.606;7.576;2023-07-29T14:25:58;2.33;;;2.13;;
10586;SDS011;5341;47.606;7.576;2023-07-29T14:28:25;2.05;;;1.83;;
10586;SDS011;5341;47.606;7.576;2023-07-29T14:30:53;2.60;;;2.40;;
10586;SDS011;5341;47.606;7.576;2023-07-29T14:33:20;2.10;;;1.90;;
10586;SDS011;5341;47.606;7.576;2023-07-29T14:35:48;2.28;;;2.00;;
10586;SDS011;5341;47.606;7.576;2023-07-29T14:38:16;2.10;;;1.80;;
10586;SDS011;5341;47.606;7.576;2023-07-29T14:40:47;2.20;;;2.00;;
10586;SDS011;5341;47.606;7.576;2023-07-29T14:43:16;2.90;;;2.10;;
10586;SDS011;5341;47.606;7.576;2023-07-29T14:45:44;2.47;;;1.80;;
10586;SDS011;5341;47.606;7.576;2023-07-29T14:48:11;5.45;;;2.00;;
10586;SDS011;5341;47.606;7.576;2023-07-29T14:50:39;2.42;;;1.77;;
10586;SDS011;5341;47.606;7.576;2023-07-29T14:53:06;2.53;;;2.10;;
10586;SDS011;5341;47.606;7.576;2023-07-29T14:55:34;3.05;;;2.10;;
10586;SDS011;5341;47.606;7.576;2023-07-29T14:58:03;3.38;;;1.83;;
10586;SDS011;5341;47.606;7.576;2023-07-29T15:00:30;2.50;;;1.70;;
10586;SDS011;5341;47.606;7.576;2023-07-29T15:02:58;3.20;;;2.00;;
10586;SDS011;5341;47.606;7.576;2023-07-29T15:05:26;2.60;;;2.00;;
10586;SDS011;5341;47.606;7.576;2023-07-29T15:07:54;3.50;;;2.10;;
10586;SDS011;5341;47.606;7.576;2023-07-29T15:10:21;3.72;;;2.20;;
10586;SDS011;5341;47.606;7.576;2023-07-29T15:12:49;2.42;;;1.77;;
10586;SDS011;5341;47.606;7.576;2023-07-29T15:15:18;3.85;;;2.15;;